createdAt,value
2022-09-28T00:00:24.571Z,98813.47
2022-09-28T00:02:53.265Z,98820.72
2022-09-28T00:05:22.029Z,98813.72
2022-09-28T00:07:49.931Z,98825.59
2022-09-28T00:10:17.897Z,98828.28
2022-09-28T00:12:45.808Z,98825.84
2022-09-28T00:15:15.216Z,98833.69
2022-09-28T00:17:44.761Z,98835.84
2022-09-28T00:20:12.716Z,98839.34
2022-09-28T00:22:40.619Z,98839.34
2022-09-28T00:25:09.667Z,98842.03
2022-09-28T00:27:37.549Z,98852.03
2022-09-28T00:30:18.862Z,98846.63
2022-09-28T00:32:46.762Z,98861.19
2022-09-28T00:35:14.800Z,98859.34
2022-09-28T00:37:43.170Z,98864.97
2022-09-28T00:40:11.251Z,98852.56
2022-09-28T00:42:42.850Z,98851.72
2022-09-28T00:45:11.223Z,98850.09
2022-09-28T00:47:42.874Z,98851.19
2022-09-28T00:50:14.226Z,98848.47
2022-09-28T00:52:44.065Z,98841.44
2022-09-28T00:55:14.965Z,98842.22
2022-09-28T00:57:44.723Z,98847.63
2022-09-28T01:00:14.534Z,98845.22
2022-09-28T01:02:44.005Z,98842.50
2022-09-28T01:05:11.973Z,98849.78
2022-09-28T01:07:39.862Z,98850.84
2022-09-28T01:10:08.382Z,98846.53
2022-09-28T01:12:36.346Z,98841.13
2022-09-28T01:15:04.614Z,98831.41
2022-09-28T01:17:38.246Z,98831.41
2022-09-28T01:20:35.932Z,98836.25
2022-09-28T01:23:26.306Z,98840.00
2022-09-28T01:25:55.512Z,98832.97
2022-09-28T01:28:26.529Z,98832.97
2022-09-28T01:30:59.853Z,98831.59
2022-09-28T01:33:30.120Z,98838.63
2022-09-28T01:36:00.795Z,98833.50
2022-09-28T01:38:30.828Z,98826.44
2022-09-28T01:40:59.121Z,98831.84
2022-09-28T01:43:28.899Z,98825.63
2022-09-28T01:46:00.334Z,98821.03
2022-09-28T01:48:31.342Z,98819.44
2022-09-28T01:51:01.050Z,98828.59
2022-09-28T01:53:32.787Z,98825.06
2022-09-28T01:56:02.642Z,98820.50
2022-09-28T01:58:33.681Z,98825.06
2022-09-28T02:01:10.481Z,98826.97
2022-09-28T02:03:40.377Z,98832.34
2022-09-28T02:06:10.023Z,98830.75
2022-09-28T02:08:38.815Z,98837.22
2022-09-28T02:11:09.185Z,98833.69
2022-09-28T02:13:40.661Z,98829.34
2022-09-28T02:16:11.960Z,98831.25
2022-09-28T02:18:40.027Z,98824.19
2022-09-28T02:21:10.207Z,98827.97
2022-09-28T02:23:38.475Z,98833.38
2022-09-28T02:26:08.134Z,98837.16
2022-09-28T02:28:36.012Z,98834.69
2022-09-28T02:31:05.337Z,98826.59
2022-09-28T02:33:36.217Z,98828.50
2022-09-28T02:36:04.636Z,98844.69
2022-09-28T02:38:32.563Z,98838.47
2022-09-28T02:41:05.374Z,98842.22
2022-09-28T02:43:36.904Z,98845.19
2022-09-28T02:46:11.703Z,98845.19
2022-09-28T02:49:00.048Z,98849.75
2022-09-28T02:51:44.149Z,98860.56
2022-09-28T02:54:22.706Z,98869.72
2022-09-28T02:57:08.681Z,98884.03
2022-09-28T02:59:58.723Z,98891.09
2022-09-28T03:02:30.248Z,98883.47
2022-09-28T03:05:05.494Z,98887.81
2022-09-28T03:07:35.276Z,98897.81
2022-09-28T03:10:04.634Z,98888.88
2022-09-28T03:12:33.304Z,98882.66
2022-09-28T03:15:08.861Z,98891.84
2022-09-28T03:17:38.136Z,98890.22
2022-09-28T03:20:06.987Z,98891.03
2022-09-28T03:22:34.886Z,98893.16
2022-09-28T03:25:02.740Z,98893.16
2022-09-28T03:27:30.758Z,98903.13
2022-09-28T03:29:58.646Z,98910.41
2022-09-28T03:32:26.585Z,98913.13
2022-09-28T03:34:55.890Z,98909.84
2022-09-28T03:37:23.792Z,98924.97
2022-09-28T03:39:51.698Z,98923.59
2022-09-28T03:42:19.556Z,98916.28
2022-09-28T03:44:47.486Z,98916.56
2022-09-28T03:47:17.374Z,98915.75
2022-09-28T03:49:45.623Z,98912.22
2022-09-28T03:52:15.004Z,98902.50
2022-09-28T03:54:46.935Z,98902.50
2022-09-28T03:57:16.930Z,98905.19
2022-09-28T03:59:44.868Z,98901.69
2022-09-28T04:02:12.903Z,98884.69
2022-09-28T04:04:40.888Z,98885.50
2022-09-28T04:07:08.793Z,98875.75
2022-09-28T04:09:38.078Z,98878.44
2022-09-28T04:12:06.183Z,98882.22
2022-09-28T04:14:34.066Z,98901.94
2022-09-28T04:17:01.973Z,98913.00
2022-09-28T04:19:29.892Z,98914.59
2022-09-28T04:21:57.841Z,98914.59
2022-09-28T04:24:25.717Z,98907.59
2022-09-28T04:27:15.599Z,98891.41
2022-09-28T04:29:43.940Z,98878.97
2022-09-28T04:32:12.124Z,98878.97
2022-09-28T04:34:43.947Z,98884.34
2022-09-28T04:37:12.298Z,98882.69
2022-09-28T04:39:43.106Z,98876.50
2022-09-28T04:42:15.925Z,98891.88
2022-09-28T04:44:43.879Z,98892.69
2022-09-28T04:47:11.771Z,98893.72
2022-09-28T04:49:39.900Z,98895.63
2022-09-28T04:52:07.900Z,98901.03
2022-09-28T04:54:35.940Z,98903.72
2022-09-28T04:57:06.065Z,98909.91
2022-09-28T05:00:12.662Z,98899.97
2022-09-28T05:02:42.031Z,98905.59
2022-09-28T05:05:10.197Z,98914.50
2022-09-28T05:07:38.281Z,98932.34
2022-09-28T05:10:06.915Z,98932.59
2022-09-28T05:12:34.845Z,98938.56
2022-09-28T05:15:02.763Z,98926.13
2022-09-28T05:17:31.784Z,98936.66
2022-09-28T05:20:02.895Z,98939.97
2022-09-28T05:22:30.892Z,98936.66
2022-09-28T05:25:00.321Z,98941.03
2022-09-28T05:27:28.292Z,98944.53
2022-09-28T05:29:56.210Z,98947.47
2022-09-28T05:32:24.170Z,98942.06
2022-09-28T05:34:52.093Z,98941.03
2022-09-28T05:37:21.423Z,98945.38
2022-09-28T05:39:49.345Z,98940.78
2022-09-28T05:42:17.309Z,98938.91
2022-09-28T05:44:45.421Z,98930.00
2022-09-28T05:47:13.416Z,98929.72
2022-09-28T05:49:41.365Z,98927.88
2022-09-28T05:52:09.224Z,98934.06
2022-09-28T05:54:38.558Z,98948.13
2022-09-28T05:57:06.889Z,98953.53
2022-09-28T05:59:36.220Z,98958.94
2022-09-28T06:02:04.246Z,98960.56
2022-09-28T06:04:32.316Z,98958.44
2022-09-28T06:07:00.432Z,98957.63
2022-09-28T06:09:29.344Z,98958.44
2022-09-28T06:11:59.148Z,98959.25
2022-09-28T06:14:27.047Z,98953.84
2022-09-28T06:16:55.003Z,98958.44
2022-09-28T06:19:22.973Z,98965.44
2022-09-28T06:21:51.125Z,98960.31
2022-09-28T06:24:19.299Z,98960.06
2022-09-28T06:26:47.341Z,98954.66
2022-09-28T06:29:19.753Z,98938.47
2022-09-28T06:31:48.270Z,98952.22
2022-09-28T06:34:16.255Z,98959.25
2022-09-28T06:36:44.146Z,98960.06
2022-09-28T06:39:12.087Z,98948.22
2022-09-28T06:41:40.044Z,98940.91
2022-09-28T06:44:08.121Z,98934.72
2022-09-28T06:46:38.180Z,98934.72
2022-09-28T06:49:09.279Z,98936.34
2022-09-28T06:51:37.756Z,98940.13
2022-09-28T06:54:06.057Z,98941.72
2022-09-28T06:56:34.195Z,98945.50
2022-09-28T06:59:02.103Z,98956.31
2022-09-28T07:01:30.076Z,98966.03
2022-09-28T07:04:01.906Z,98963.31
2022-09-28T07:06:31.520Z,98963.31
2022-09-28T07:09:21.306Z,98974.13
2022-09-28T07:11:51.429Z,98973.03
2022-09-28T07:14:36.850Z,98964.94
2022-09-28T07:17:13.673Z,98961.19
2022-09-28T07:19:47.048Z,98965.53
2022-09-28T07:22:18.880Z,98970.34
2022-09-28T07:24:48.169Z,98973.63
2022-09-28T07:27:16.179Z,98973.63
2022-09-28T07:29:44.149Z,98974.44
2022-09-28T07:32:12.158Z,98973.63
2022-09-28T07:34:48.816Z,98962.81
2022-09-28T07:37:18.891Z,98960.38
2022-09-28T07:40:04.207Z,98968.72
2022-09-28T07:42:32.442Z,98979.53
2022-09-28T07:45:00.412Z,98979.53
2022-09-28T07:47:33.957Z,98966.03
2022-09-28T07:50:04.332Z,98976.00
2022-09-28T07:52:34.704Z,98984.91
2022-09-28T07:55:06.771Z,98994.09
2022-09-28T07:57:35.387Z,98978.72
2022-09-28T08:00:05.592Z,98981.41
2022-09-28T08:02:35.281Z,98963.31
2022-09-28T08:05:04.906Z,98952.53
2022-09-28T08:07:34.456Z,98957.13
2022-09-28T08:10:02.467Z,98959.53
2022-09-28T08:12:30.505Z,98962.25
2022-09-28T08:15:00.239Z,98969.53
2022-09-28T08:17:28.358Z,98966.84
2022-09-28T08:20:14.452Z,98954.16
2022-09-28T08:22:44.311Z,98951.44
2022-09-28T08:25:15.146Z,98948.75
2022-09-28T08:27:43.134Z,98943.34
2022-09-28T08:30:14.231Z,98946.06
2022-09-28T08:32:49.280Z,98944.19
2022-09-28T08:35:17.710Z,98942.31
2022-09-28T08:37:54.705Z,98943.34
2022-09-28T08:40:24.832Z,98941.50
2022-09-28T08:42:54.312Z,98947.72
2022-09-28T08:45:24.509Z,98938.78
2022-09-28T08:48:13.488Z,98925.03
2022-09-28T08:50:47.156Z,98928.53
2022-09-28T08:53:28.881Z,98919.13
2022-09-28T08:56:04.321Z,98921.59
2022-09-28T08:58:34.331Z,98917.31
2022-09-28T09:01:02.254Z,98908.97
2022-09-28T09:03:32.323Z,98911.97
2022-09-28T09:06:03.684Z,98905.25
2022-09-28T09:08:39.145Z,98899.59
2022-09-28T09:11:15.406Z,98908.53
2022-09-28T09:14:05.845Z,98902.03
2022-09-28T09:16:41.523Z,98880.44
2022-09-28T09:19:16.484Z,98884.22
2022-09-28T09:21:48.443Z,98885.84
2022-09-28T09:24:25.263Z,98888.31
2022-09-28T09:26:57.283Z,98898.03
2022-09-28T09:29:30.663Z,98879.97
2022-09-28T09:32:10.428Z,98885.34
2022-09-28T09:35:05.026Z,98885.66
2022-09-28T09:37:48.021Z,98889.72
2022-09-28T09:40:30.479Z,98876.22
2022-09-28T09:43:08.363Z,98884.34
2022-09-28T09:45:44.573Z,98884.91
2022-09-28T09:48:15.049Z,98897.59
2022-09-28T09:50:46.983Z,98891.34
2022-09-28T09:53:17.501Z,98896.25
2022-09-28T09:55:47.368Z,98893.31
2022-09-28T09:58:17.738Z,98888.72
2022-09-28T10:00:55.783Z,98889.03
2022-09-28T10:03:24.989Z,98883.94
2022-09-28T10:05:56.430Z,98889.91
2022-09-28T10:08:24.792Z,98879.91
2022-09-28T10:10:55.382Z,98873.19
2022-09-28T10:13:23.299Z,98873.75
2022-09-28T10:15:52.570Z,98873.22
2022-09-28T10:18:21.008Z,98878.63
2022-09-28T10:20:48.998Z,98867.84
2022-09-28T10:23:22.736Z,98857.84
2022-09-28T10:25:51.244Z,98854.06
2022-09-28T10:28:22.754Z,98852.72
2022-09-28T10:30:59.844Z,98844.69
2022-09-28T10:33:31.920Z,98846.34
2022-09-28T10:36:00.535Z,98850.41
2022-09-28T10:38:28.653Z,98849.09
2022-09-28T10:40:56.957Z,98850.72
2022-09-28T10:43:27.584Z,98851.28
2022-09-28T10:46:02.197Z,98854.53
2022-09-28T10:48:31.235Z,98851.31
2022-09-28T10:51:00.843Z,98853.75
2022-09-28T10:53:28.794Z,98840.00
2022-09-28T10:56:01.555Z,98845.97
2022-09-28T10:58:39.364Z,98835.97
2022-09-28T11:01:09.626Z,98825.72
2022-09-28T11:03:42.851Z,98824.88
2022-09-28T11:06:10.763Z,98816.53
2022-09-28T11:08:39.604Z,98818.97
2022-09-28T11:11:09.663Z,98822.22
2022-09-28T11:13:43.544Z,98809.25
2022-09-28T11:16:26.210Z,98812.78
2022-09-28T11:18:54.274Z,98819.53
2022-09-28T11:21:24.663Z,98818.50
2022-09-28T11:24:06.525Z,98813.63
2022-09-28T11:26:37.507Z,98808.78
2022-09-28T11:29:07.507Z,98809.34
2022-09-28T11:31:36.135Z,98809.91
2022-09-28T11:34:06.435Z,98808.81
2022-09-28T11:36:43.294Z,98803.41
2022-09-28T11:39:12.803Z,98804.22
2022-09-28T11:42:01.905Z,98799.34
2022-09-28T11:44:41.371Z,98802.63
2022-09-28T11:47:18.245Z,98792.38
2022-09-28T11:49:47.810Z,98791.53
2022-09-28T11:52:18.708Z,98791.84
2022-09-28T11:54:49.246Z,98789.94
2022-09-28T11:57:19.396Z,98781.31
2022-09-28T11:59:53.916Z,98778.59
2022-09-28T12:02:22.108Z,98783.75
2022-09-28T12:04:52.436Z,98775.66
2022-09-28T12:07:23.252Z,98769.97
2022-09-28T12:09:53.445Z,98761.59
2022-09-28T12:12:25.312Z,98762.41
2022-09-28T12:14:56.837Z,98763.22
2022-09-28T12:17:26.051Z,98770.28
2022-09-28T12:19:55.736Z,98761.88
2022-09-28T12:22:25.509Z,98758.94
2022-09-28T12:24:55.137Z,98742.69
2022-09-28T12:27:26.010Z,98744.31
2022-09-28T12:29:57.348Z,98738.66
2022-09-28T12:32:29.771Z,98739.22
2022-09-28T12:34:57.685Z,98731.66
2022-09-28T12:37:33.382Z,98736.00
2022-09-28T12:40:09.428Z,98733.84
2022-09-28T12:42:47.595Z,98734.38
2022-09-28T12:45:42.989Z,98743.03
2022-09-28T12:48:42.241Z,98735.75
2022-09-28T12:51:15.869Z,98731.13
2022-09-28T12:53:55.319Z,98727.94
2022-09-28T12:56:25.866Z,98718.72
2022-09-28T12:59:01.005Z,98717.38
2022-09-28T13:01:45.844Z,98725.25
2022-09-28T13:04:20.912Z,98736.59
2022-09-28T13:06:54.808Z,98728.75
2022-09-28T13:09:23.854Z,98733.88
2022-09-28T13:12:09.066Z,98728.22
2022-09-28T13:14:54.430Z,98727.13
2022-09-28T13:17:26.872Z,98730.94
2022-09-28T13:19:58.325Z,98713.59
2022-09-28T13:22:30.495Z,98719.56
2022-09-28T13:24:59.754Z,98708.75
2022-09-28T13:27:31.186Z,98711.72
2022-09-28T13:30:00.820Z,98703.59
2022-09-28T13:32:31.593Z,98710.66
2022-09-28T13:35:02.075Z,98718.50
2022-09-28T13:37:30.118Z,98713.63
2022-09-28T13:39:59.099Z,98711.72
2022-09-28T13:42:52.673Z,98709.59
2022-09-28T13:45:44.245Z,98711.22
2022-09-28T13:48:15.362Z,98709.59
2022-09-28T13:51:01.573Z,98716.63
2022-09-28T13:53:33.819Z,98715.81
2022-09-28T13:56:02.998Z,98719.34
2022-09-28T13:58:32.151Z,98716.63
2022-09-28T14:01:01.205Z,98719.34
2022-09-28T14:03:44.712Z,98720.97
2022-09-28T14:06:30.902Z,98713.94
2022-09-28T14:09:10.245Z,98711.22
2022-09-28T14:11:44.743Z,98721.22
2022-09-28T14:14:47.228Z,98716.88
2022-09-28T14:17:52.229Z,98717.16
2022-09-28T14:20:25.401Z,98712.81
2022-09-28T14:23:07.741Z,98711.22
2022-09-28T14:25:37.417Z,98713.91
2022-09-28T14:28:14.097Z,98726.59
2022-09-28T14:30:49.583Z,98730.16
2022-09-28T14:33:23.292Z,98731.22
2022-09-28T14:35:56.364Z,98731.22
2022-09-28T14:38:44.784Z,98730.16
2022-09-28T14:41:14.943Z,98724.75
2022-09-28T14:44:08.088Z,98720.16
2022-09-28T14:46:45.565Z,98716.09
2022-09-28T14:49:45.094Z,98712.56
2022-09-28T14:52:15.018Z,98714.75
2022-09-28T14:54:49.337Z,98720.97
2022-09-28T14:57:19.028Z,98720.41
2022-09-28T14:59:47.839Z,98718.50
2022-09-28T15:02:24.781Z,98715.00
2022-09-28T15:04:54.609Z,98707.97
2022-09-28T15:07:33.022Z,98703.63
2022-09-28T15:10:02.152Z,98704.72
2022-09-28T15:12:30.580Z,98702.00
2022-09-28T15:15:01.385Z,98705.50
2022-09-28T15:17:30.352Z,98699.28
2022-09-28T15:20:12.294Z,98689.56
2022-09-28T15:22:45.941Z,98689.56
2022-09-28T15:25:14.919Z,98687.13
2022-09-28T15:27:42.861Z,98693.63
2022-09-28T15:30:24.183Z,98697.13
2022-09-28T15:32:54.048Z,98697.13
2022-09-28T15:35:22.215Z,98700.91
2022-09-28T15:37:52.708Z,98702.00
2022-09-28T15:40:25.493Z,98697.66
2022-09-28T15:42:59.098Z,98689.00
2022-09-28T15:45:30.763Z,98691.69
2022-09-28T15:48:18.845Z,98693.84
2022-09-28T15:50:59.942Z,98689.78
2022-09-28T15:53:30.131Z,98693.31
2022-09-28T15:56:01.381Z,98688.97
2022-09-28T15:58:29.298Z,98691.94
2022-09-28T16:01:36.285Z,98690.31
2022-09-28T16:04:37.330Z,98681.41
2022-09-28T16:07:25.068Z,98681.66
2022-09-28T16:10:01.706Z,98680.28
2022-09-28T16:12:36.343Z,98674.88
2022-09-28T16:15:05.188Z,98671.38
2022-09-28T16:17:33.977Z,98673.53
2022-09-28T16:20:03.281Z,98668.94
2022-09-28T16:22:32.696Z,98668.94
2022-09-28T16:25:02.193Z,98668.94
2022-09-28T16:27:31.891Z,98687.84
2022-09-28T16:30:12.134Z,98686.81
2022-09-28T16:32:42.569Z,98680.59
2022-09-28T16:35:22.619Z,98679.75
2022-09-28T16:37:56.428Z,98687.84
2022-09-28T16:40:25.849Z,98694.34
2022-09-28T16:42:53.796Z,98694.34
2022-09-28T16:45:23.288Z,98693.56
2022-09-28T16:47:52.465Z,98705.19
2022-09-28T16:50:20.628Z,98699.78
2022-09-28T16:53:06.849Z,98697.06
2022-09-28T16:55:40.491Z,98698.97
2022-09-28T16:58:10.764Z,98692.75
2022-09-28T17:00:38.873Z,98682.19
2022-09-28T17:03:15.270Z,98689.75
2022-09-28T17:05:43.495Z,98680.00
2022-09-28T17:08:14.875Z,98690.81
2022-09-28T17:11:15.789Z,98684.63
2022-09-28T17:13:46.922Z,98684.88
2022-09-28T17:16:25.116Z,98692.13
2022-09-28T17:19:01.943Z,98679.72
2022-09-28T17:21:30.132Z,98684.28
2022-09-28T17:23:58.301Z,98684.28
2022-09-28T17:26:31.488Z,98679.72
2022-09-28T17:29:01.755Z,98676.16
2022-09-28T17:31:31.289Z,98677.00
2022-09-28T17:34:00.704Z,98669.16
2022-09-28T17:36:30.426Z,98672.66
2022-09-28T17:39:00.375Z,98665.63
2022-09-28T17:41:30.975Z,98678.06
2022-09-28T17:44:01.813Z,98671.03
2022-09-28T17:46:34.116Z,98664.81
2022-09-28T17:49:02.785Z,98672.66
2022-09-28T17:51:38.342Z,98678.59
2022-09-28T17:54:08.147Z,98684.56
2022-09-28T17:56:38.906Z,98682.91
2022-09-28T17:59:11.225Z,98688.88
2022-09-28T18:01:40.991Z,98684.81
2022-09-28T18:04:19.175Z,98680.22
2022-09-28T18:06:57.127Z,98674.81
2022-09-28T18:09:26.635Z,98676.44
2022-09-28T18:12:00.273Z,98679.16
2022-09-28T18:14:30.173Z,98682.91
2022-09-28T18:17:16.927Z,98675.63
2022-09-28T18:19:46.199Z,98676.44
2022-09-28T18:22:15.181Z,98671.03
2022-09-28T18:24:44.390Z,98673.47
2022-09-28T18:27:14.818Z,98675.09
2022-09-28T18:29:42.710Z,98675.91
2022-09-28T18:40:38.998Z,98692.44
2022-09-28T18:43:08.445Z,98693.28
2022-09-28T18:45:36.888Z,98690.28
2022-09-28T18:48:04.955Z,98691.91
2022-09-28T18:50:32.896Z,98693.56
2022-09-28T18:53:11.497Z,98694.34
2022-09-28T18:55:40.350Z,98687.34
2022-09-28T18:58:10.005Z,98690.56
2022-09-28T19:00:38.947Z,98679.75
2022-09-28T19:03:45.593Z,98684.34
2022-09-28T19:06:14.597Z,98692.47
2022-09-28T19:08:42.693Z,98690.56
2022-09-28T19:11:11.529Z,98687.84
2022-09-28T19:13:40.906Z,98685.16
2022-09-28T19:16:09.863Z,98683.28
2022-09-28T19:22:30.470Z,98683.00
2022-09-28T19:24:58.416Z,98682.19
2022-09-28T19:27:26.368Z,98681.38
2022-09-28T19:29:55.667Z,98678.69
2022-09-28T19:52:45.906Z,98673.50
2022-09-28T19:55:17.671Z,98675.41
2022-09-28T19:57:48.525Z,98663.78
2022-09-28T20:00:21.561Z,98661.88
2022-09-28T20:06:32.016Z,98662.97
2022-09-28T20:09:02.472Z,98667.56
2022-09-28T20:11:31.387Z,98661.31
2022-09-28T20:13:59.741Z,98659.69
2022-09-28T20:16:27.840Z,98664.03
2022-09-28T20:34:22.080Z,98667.78
2022-09-28T20:36:51.190Z,98667.78
2022-09-28T20:39:20.920Z,98662.38
2022-09-28T20:41:52.109Z,98669.41
2022-09-28T20:44:20.351Z,98674.81
2022-09-28T20:46:51.138Z,98667.53
2022-09-28T20:57:03.198Z,98656.97
2022-09-28T20:59:32.442Z,98661.28
2022-09-28T21:02:00.599Z,98656.97
2022-09-28T21:12:12.827Z,98662.91
2022-09-28T21:14:40.770Z,98660.19
2022-09-28T21:17:08.694Z,98665.88
2022-09-28T21:23:27.861Z,98662.63
2022-09-28T21:26:06.853Z,98663.44
2022-09-28T21:28:38.195Z,98669.09
2022-09-28T21:31:09.138Z,98671.81
2022-09-28T21:37:28.832Z,98669.38
2022-09-28T21:39:58.163Z,98669.38
2022-09-28T21:42:26.126Z,98661.28
2022-09-28T21:44:59.466Z,98661.28
2022-09-28T21:47:29.888Z,98664.78
2022-09-28T21:53:50.846Z,98654.22
2022-09-28T21:56:21.179Z,98658.81
2022-09-28T21:58:50.464Z,98653.66
2022-09-28T22:01:24.761Z,98657.47
2022-09-28T22:07:44.687Z,98657.47
2022-09-28T22:10:14.168Z,98666.09
2022-09-28T22:12:42.272Z,98658.00
2022-09-28T22:15:13.659Z,98653.66
2022-09-28T22:24:38.281Z,98666.91
2022-09-28T22:27:07.415Z,98657.97
2022-09-28T22:29:37.034Z,98659.06
2022-09-28T22:32:07.564Z,98652.81
2022-09-28T22:35:05.213Z,98661.75
2022-09-28T22:37:34.537Z,98662.81
2022-09-28T22:40:05.366Z,98655.81
2022-09-28T22:42:34.450Z,98654.16
2022-09-28T22:45:11.564Z,98659.56
2022-09-28T22:47:39.863Z,98655.81
2022-09-28T22:50:14.207Z,98653.09
2022-09-28T22:52:45.695Z,98653.34
2022-09-28T22:55:15.193Z,98656.06
2022-09-28T22:57:44.654Z,98656.34
2022-09-28T23:00:15.164Z,98660.09
2022-09-28T23:02:44.077Z,98658.47
2022-09-28T23:09:05.702Z,98660.63
2022-09-28T23:11:34.739Z,98665.22
2022-09-28T23:14:04.019Z,98660.88
2022-09-28T23:16:33.377Z,98672.53
2022-09-28T23:19:01.388Z,98665.75
2022-09-28T23:21:31.236Z,98664.94
2022-09-28T23:24:01.073Z,98662.25
2022-09-28T23:26:32.413Z,98666.00
2022-09-28T23:29:01.952Z,98663.31
2022-09-28T23:31:31.027Z,98655.19
2022-09-28T23:37:44.206Z,98660.03
2022-09-28T23:40:13.430Z,98654.63
2022-09-28T23:42:44.034Z,98652.22
2022-09-28T23:45:16.153Z,98656.81
2022-09-28T23:47:44.917Z,98658.44
2022-09-28T23:54:07.184Z,98651.41
2022-09-28T23:56:37.211Z,98654.63
2022-09-28T23:59:15.333Z,98655.72
